Brazil, Iowa
Current Conditions -  °F | °C
As of 3:10 AM on Friday 19 Dec 2014 (Local Time) from KTVK Reporting Station
Overcast Overcast  
Wind Chill: 27°   Ceiling: 2300
Heat Index: 27°   Visibility: 10mi
Dew Point: 27°   Wind: 0mph
Humidity: 100%   Direction: NA
Pressure: 30.27"   Gusts: NA
Location:  40.8017°N, 92.9289°W
Report Text: KTVK 190910Z AUTO 00000KT 10SM OVC023 M03/M03 A3027 RMK AO2
Loading
Personal Weather Stations






























Interactive Weather Map New forecast layout! Learn more

10-Day Weather Forecast

Advertisements
Track Severe Weather on mobile